Kearns, UT (84118)

8:36 PM MDT on March 29, 2015 (GMT -0600)
Kearns | | Change Station
CLOSE
Current Station
Personal Weather Station
Location: Kearns, UT
Elevation: 4613 ft
Nearby Weather Stations

Elev 4613 ft 40.65 °N, 111.98 °W | Updated 16 seconds ago

Clear
Clear
54.7 °F
Feels Like 54.7 °F
N
0.0
Wind Variable Wind from West
Gusts 1.0 mph

Today
High -- | Low -- °F
--% Chance of Precip.
Yesterday
High -- | Low -- °F
Precip. -- in
7:16 AM 7:49 PM
Waxing Gibbous, 76% visible
Pressure 30.14 in
Visibility 10.0 miles
Clouds Few 20000 ft
Dew Point 21 °F
Humidity 27%
Rainfall 0.00 in
Snow Depth Not available.
UV 0 out of 12
Pollen 8.10 out of 12
Air Quality Not available.
Flu Activity Not available.
METAR KSLC 300153Z 31008KT 10SM FEW200 16/M06 A3019 RMK AO2 SLP207 T01561056 $

More Conditions Fewer Conditions

Pressure 30.14 in
Visibility 10.0 miles
Clouds Few 20000 ft
Dew Point 21 °F
Humidity 27%
Rainfall 0.00 in
Snow Depth Not available.
UV 0 out of 12
Pollen 8.10 out of 12
Air Quality Not available.
Flu Activity Not available.
METAR KSLC 300153Z 31008KT 10SM FEW200 16/M06 A3019 RMK AO2 SLP207 T01561056 $

More Conditions Fewer Conditions

10-Day Weather Forecast

Almanac

Astronomy

Mar. 29, 2015 Rise Set
Actual Time
Civil Twilight
Nautical Twilight
Astronomical Twilight
Moon
Length of Visible Light
Length of Day
Tomorrow will be .
, % of the Moon is Illuminated

Today's Extremes

State Highs State Lows

Community

WunderPhotos

Upload Photos

1,809,414 photos uploaded!

WunderBlogs® & News

Nearby

Air Quality

  Air Quality AQ Index Pollutant
Not available.

Snow Depth

Station Depth Elevation

Earthquake Activity

City Distance Mag. Time & Date
Minimum magnitude displayed is 2.5.

Coastal Water Temperatures

Place Temperature

Stations

Nearby Weather Stations

Station Location Temp. Windchill Dew Point Humidity Wind Precip. Elev Updated Type